createdAt,value
2022-08-28T00:00:51.094Z,19.08
2022-08-28T00:01:51.084Z,18.95
2022-08-28T00:02:51.186Z,18.99
2022-08-28T00:03:51.049Z,19.10
2022-08-28T00:04:51.118Z,19.02
2022-08-28T00:05:51.035Z,19.00
2022-08-28T00:06:51.019Z,19.02
2022-08-28T00:07:51.040Z,18.99
2022-08-28T00:08:51.010Z,18.99
2022-08-28T00:09:50.993Z,18.92
2022-08-28T00:10:50.984Z,18.92
2022-08-28T00:11:50.975Z,18.94
2022-08-28T00:12:50.979Z,18.94
2022-08-28T00:13:50.951Z,18.91
2022-08-28T00:14:50.950Z,19.00
2022-08-28T00:15:51.005Z,18.98
2022-08-28T00:16:50.930Z,19.02
2022-08-28T00:17:50.922Z,19.08
2022-08-28T00:18:50.934Z,19.02
2022-08-28T00:19:50.919Z,19.04
2022-08-28T00:20:50.905Z,19.02
2022-08-28T00:21:50.878Z,18.95
2022-08-28T00:22:50.866Z,19.06
2022-08-28T00:23:50.862Z,18.99
2022-08-28T00:24:50.881Z,18.95
2022-08-28T00:25:50.842Z,19.02
2022-08-28T00:26:50.838Z,18.94
2022-08-28T00:27:50.823Z,18.98
2022-08-28T00:28:50.810Z,18.98
2022-08-28T00:29:50.829Z,18.92
2022-08-28T00:30:50.925Z,18.87
2022-08-28T00:31:50.796Z,18.88
2022-08-28T00:32:50.783Z,18.84
2022-08-28T00:33:50.774Z,18.84
2022-08-28T00:34:50.752Z,18.85
2022-08-28T00:35:50.758Z,18.95
2022-08-28T00:36:50.729Z,18.92
2022-08-28T00:37:50.736Z,18.90
2022-08-28T00:38:50.763Z,18.90
2022-08-28T00:39:50.719Z,18.81
2022-08-28T00:40:50.857Z,18.81
2022-08-28T00:41:50.694Z,18.90
2022-08-28T00:42:51.689Z,18.94
2022-08-28T00:43:50.703Z,18.91
2022-08-28T00:44:50.669Z,18.99
2022-08-28T00:45:50.659Z,18.84
2022-08-28T00:46:50.734Z,18.91
2022-08-28T00:47:50.629Z,18.90
2022-08-28T00:48:50.618Z,18.81
2022-08-28T00:49:50.630Z,18.82
2022-08-28T00:50:50.603Z,18.92
2022-08-28T00:51:50.592Z,18.88
2022-08-28T00:52:50.584Z,18.81
2022-08-28T00:53:50.598Z,18.87
2022-08-28T00:54:57.268Z,18.87
2022-08-28T00:55:50.578Z,18.88
2022-08-28T00:56:50.543Z,18.91
2022-08-28T00:57:50.539Z,18.87
2022-08-28T00:58:50.527Z,18.82
2022-08-28T00:59:50.511Z,18.84
2022-08-28T01:00:50.530Z,18.84
2022-08-28T01:01:50.551Z,18.80
2022-08-28T01:02:50.525Z,18.84
2022-08-28T01:03:50.504Z,18.80
2022-08-28T01:04:50.466Z,18.80
2022-08-28T01:05:50.468Z,18.67
2022-08-28T01:06:50.444Z,18.80
2022-08-28T01:07:50.450Z,18.82
2022-08-28T01:08:50.808Z,18.76
2022-08-28T01:09:50.408Z,18.81
2022-08-28T01:11:22.321Z,18.82
2022-08-28T01:11:50.425Z,18.82
2022-08-28T01:12:50.412Z,18.84
2022-08-28T01:13:50.379Z,18.84
2022-08-28T01:14:50.371Z,18.88
2022-08-28T01:15:50.418Z,18.98
2022-08-28T01:16:50.351Z,18.87
2022-08-28T01:17:50.348Z,18.92
2022-08-28T01:18:50.324Z,18.91
2022-08-28T01:19:50.322Z,18.94
2022-08-28T01:20:50.311Z,18.95
2022-08-28T01:21:50.328Z,18.82
2022-08-28T01:22:50.312Z,18.81
2022-08-28T01:23:50.305Z,18.84
2022-08-28T01:24:50.257Z,18.87
2022-08-28T01:25:50.280Z,18.94
2022-08-28T01:26:50.239Z,18.76
2022-08-28T01:27:50.230Z,18.80
2022-08-28T01:28:50.252Z,18.75
2022-08-28T01:29:50.216Z,18.75
2022-08-28T01:30:50.290Z,18.73
2022-08-28T01:31:50.191Z,18.75
2022-08-28T01:32:50.192Z,18.72
2022-08-28T01:33:50.199Z,18.72
2022-08-28T01:34:50.174Z,18.73
2022-08-28T01:35:50.156Z,18.69
2022-08-28T01:36:50.161Z,18.58
2022-08-28T01:37:50.158Z,18.65
2022-08-28T01:38:50.138Z,18.76
2022-08-28T01:39:50.145Z,18.66
2022-08-28T01:40:50.102Z,18.66
2022-08-28T01:41:50.135Z,18.81
2022-08-28T01:42:50.089Z,18.67
2022-08-28T01:43:50.093Z,18.75
2022-08-28T01:44:50.071Z,18.65
2022-08-28T01:45:50.066Z,18.72
2022-08-28T01:46:50.140Z,18.58
2022-08-28T01:47:51.307Z,18.67
2022-08-28T01:48:50.054Z,18.63
2022-08-28T01:49:50.003Z,18.75
2022-08-28T01:50:50.004Z,18.76
2022-08-28T01:51:50.036Z,18.66
2022-08-28T01:52:49.988Z,18.65
2022-08-28T01:53:49.981Z,18.69
2022-08-28T01:54:49.972Z,18.73
2022-08-28T01:55:49.952Z,18.69
2022-08-28T01:56:49.969Z,18.73
2022-08-28T01:57:49.959Z,18.72
2022-08-28T01:58:49.961Z,18.65
2022-08-28T01:59:49.938Z,18.65
2022-08-28T02:00:50.924Z,18.63
2022-08-28T02:01:49.982Z,18.67
2022-08-28T02:02:49.894Z,18.78
2022-08-28T02:03:49.900Z,18.78
2022-08-28T02:04:49.977Z,18.73
2022-08-28T02:05:49.866Z,18.69
2022-08-28T02:06:49.861Z,18.70
2022-08-28T02:07:49.844Z,18.81
2022-08-28T02:08:49.859Z,18.75
2022-08-28T02:09:49.844Z,18.78
2022-08-28T02:10:49.814Z,18.75
2022-08-28T02:11:49.820Z,18.78
2022-08-28T02:12:49.793Z,18.72
2022-08-28T02:13:50.845Z,18.67
2022-08-28T02:14:49.786Z,18.70
2022-08-28T02:15:49.833Z,18.76
2022-08-28T02:16:49.759Z,18.76
2022-08-28T02:17:49.747Z,18.84
2022-08-28T02:18:49.738Z,18.81
2022-08-28T02:19:49.744Z,18.72
2022-08-28T02:20:49.722Z,18.76
2022-08-28T02:21:49.730Z,18.80
2022-08-28T02:22:49.689Z,18.76
2022-08-28T02:23:49.772Z,18.73
2022-08-28T02:24:49.696Z,18.69
2022-08-28T02:25:49.826Z,18.82
2022-08-28T02:26:49.651Z,18.82
2022-08-28T02:27:49.657Z,18.90
2022-08-28T02:28:49.626Z,18.82
2022-08-28T02:29:50.624Z,18.85
2022-08-28T02:30:49.686Z,18.90
2022-08-28T02:31:49.608Z,18.85
2022-08-28T02:32:49.607Z,18.91
2022-08-28T02:33:49.588Z,18.94
2022-08-28T02:34:49.578Z,18.81
2022-08-28T02:35:49.589Z,18.87
2022-08-28T02:36:49.562Z,18.85
2022-08-28T02:37:49.552Z,18.87
2022-08-28T02:38:51.907Z,18.82
2022-08-28T02:39:49.545Z,18.87
2022-08-28T02:40:49.529Z,18.81
2022-08-28T02:41:49.517Z,18.87
2022-08-28T02:42:49.500Z,18.76
2022-08-28T02:43:49.485Z,18.88
2022-08-28T02:44:49.490Z,18.76
2022-08-28T02:45:49.505Z,18.92
2022-08-28T02:46:49.487Z,18.73
2022-08-28T02:47:49.439Z,18.90
2022-08-28T02:48:49.441Z,18.88
2022-08-28T02:49:49.436Z,18.90
2022-08-28T02:50:49.411Z,18.82
2022-08-28T02:51:49.408Z,18.90
2022-08-28T02:52:49.420Z,18.85
2022-08-28T02:53:49.422Z,18.91
2022-08-28T02:54:49.380Z,18.88
2022-08-28T02:55:49.374Z,18.78
2022-08-28T02:56:49.367Z,18.82
2022-08-28T02:57:49.354Z,18.80
2022-08-28T02:58:50.365Z,18.84
2022-08-28T02:59:49.337Z,18.75
2022-08-28T03:00:49.346Z,18.67
2022-08-28T03:01:49.370Z,18.78
2022-08-28T03:02:50.359Z,18.72
2022-08-28T03:03:49.292Z,18.82
2022-08-28T03:04:49.279Z,18.90
2022-08-28T03:05:49.289Z,18.81
2022-08-28T03:06:49.264Z,18.87
2022-08-28T03:07:49.259Z,18.92
2022-08-28T03:08:49.250Z,18.94
2022-08-28T03:09:49.240Z,18.91
2022-08-28T03:10:49.258Z,18.90
2022-08-28T03:11:49.241Z,18.94
2022-08-28T03:12:49.209Z,18.90
2022-08-28T03:13:49.204Z,18.82
2022-08-28T03:14:49.183Z,18.76
2022-08-28T03:15:51.972Z,18.70
2022-08-28T03:16:50.244Z,18.88
2022-08-28T03:17:49.169Z,18.87
2022-08-28T03:18:49.151Z,18.87
2022-08-28T03:19:49.146Z,18.87
2022-08-28T03:20:49.137Z,18.88
2022-08-28T03:21:49.131Z,18.91
2022-08-28T03:22:49.125Z,18.94
2022-08-28T03:23:49.099Z,18.92
2022-08-28T03:24:49.102Z,18.87
2022-08-28T03:25:49.099Z,18.94
2022-08-28T03:26:49.082Z,18.92
2022-08-28T03:27:49.057Z,19.00
2022-08-28T03:28:49.031Z,18.84
2022-08-28T03:29:49.028Z,18.98
2022-08-28T03:30:49.090Z,18.99
2022-08-28T03:31:49.042Z,18.99
2022-08-28T03:32:49.016Z,18.99
2022-08-28T03:33:48.998Z,18.98
2022-08-28T03:34:49.001Z,18.98
2022-08-28T03:35:48.991Z,18.84
2022-08-28T03:36:49.032Z,18.90
2022-08-28T03:37:48.962Z,18.94
2022-08-28T03:38:48.941Z,18.94
2022-08-28T03:39:48.945Z,19.04
2022-08-28T03:40:48.921Z,19.00
2022-08-28T03:41:48.940Z,18.92
2022-08-28T03:42:53.335Z,18.94
2022-08-28T03:43:48.905Z,19.04
2022-08-28T03:44:48.897Z,18.95
2022-08-28T03:45:48.906Z,18.98
2022-08-28T03:46:48.910Z,18.91
2022-08-28T03:47:48.857Z,18.90
2022-08-28T03:48:48.857Z,18.95
2022-08-28T03:49:48.834Z,18.92
2022-08-28T03:50:49.000Z,18.99
2022-08-28T03:51:48.861Z,19.00
2022-08-28T03:52:48.803Z,18.92
2022-08-28T03:53:48.821Z,18.91
2022-08-28T03:54:48.814Z,18.87
2022-08-28T03:55:48.781Z,18.84
2022-08-28T03:56:48.771Z,18.73
2022-08-28T03:57:48.763Z,18.73
2022-08-28T03:58:48.774Z,18.80
2022-08-28T03:59:48.729Z,18.75
2022-08-28T04:00:49.735Z,18.60
2022-08-28T04:01:48.789Z,18.60
2022-08-28T04:02:48.724Z,18.63
2022-08-28T04:03:48.724Z,18.65
2022-08-28T04:04:48.715Z,18.62
2022-08-28T04:05:48.679Z,18.65
2022-08-28T04:06:48.668Z,18.60
2022-08-28T04:07:48.661Z,18.65
2022-08-28T04:08:48.663Z,18.67
2022-08-28T04:09:48.661Z,18.62
2022-08-28T04:10:48.641Z,18.62
2022-08-28T04:11:48.615Z,18.52
2022-08-28T04:12:48.609Z,18.54
2022-08-28T04:13:48.608Z,18.45
2022-08-28T04:14:48.614Z,18.45
2022-08-28T04:15:48.604Z,18.33
2022-08-28T04:16:48.649Z,18.32
2022-08-28T04:17:48.567Z,18.37
2022-08-28T04:18:48.554Z,18.23
2022-08-28T04:19:48.538Z,18.21
2022-08-28T04:20:48.555Z,18.17
2022-08-28T04:21:48.568Z,18.20
2022-08-28T04:22:48.536Z,18.11
2022-08-28T04:23:49.518Z,18.10
2022-08-28T04:24:48.505Z,17.92
2022-08-28T04:25:48.495Z,17.96
2022-08-28T04:26:48.480Z,18.08
2022-08-28T04:27:48.469Z,18.02
2022-08-28T04:28:48.470Z,18.05
2022-08-28T04:29:48.442Z,17.97
2022-08-28T04:30:48.461Z,17.82
2022-08-28T04:31:48.491Z,17.89
2022-08-28T04:32:48.414Z,17.84
2022-08-28T04:33:48.555Z,17.84
2022-08-28T04:34:48.415Z,17.78
2022-08-28T04:35:48.389Z,17.81
2022-08-28T04:36:48.377Z,17.74
2022-08-28T04:37:48.394Z,17.70
2022-08-28T04:38:49.353Z,17.78
2022-08-28T04:39:48.342Z,17.62
2022-08-28T04:40:48.347Z,17.52
2022-08-28T04:41:48.334Z,17.59
2022-08-28T04:42:48.337Z,17.71
2022-08-28T04:43:48.308Z,17.66
2022-08-28T04:44:48.300Z,17.58
2022-08-28T04:45:48.352Z,17.56
2022-08-28T04:46:48.360Z,17.54
2022-08-28T04:47:48.260Z,17.56
2022-08-28T04:48:48.268Z,17.62
2022-08-28T04:49:48.254Z,17.48
2022-08-28T04:50:48.260Z,17.59
2022-08-28T04:51:48.241Z,17.55
2022-08-28T04:52:48.216Z,17.68
2022-08-28T04:53:48.202Z,17.51
2022-08-28T04:54:48.241Z,17.64
2022-08-28T04:55:53.759Z,17.82
2022-08-28T04:56:48.185Z,17.84
2022-08-28T04:57:48.174Z,17.82
2022-08-28T04:58:48.166Z,17.86
2022-08-28T04:59:48.183Z,17.95
2022-08-28T05:00:48.176Z,17.97
2022-08-28T05:01:48.173Z,18.11
2022-08-28T05:02:48.125Z,18.07
2022-08-28T05:03:48.144Z,18.15
2022-08-28T05:04:48.102Z,18.14
2022-08-28T05:05:48.089Z,18.23
2022-08-28T05:06:48.084Z,18.33
2022-08-28T05:07:48.080Z,18.36
2022-08-28T05:08:48.086Z,18.45
2022-08-28T05:09:48.060Z,18.51
2022-08-28T05:10:48.039Z,18.47
2022-08-28T05:11:48.047Z,18.58
2022-08-28T05:12:48.019Z,18.63
2022-08-28T05:13:48.045Z,18.72
2022-08-28T05:14:47.996Z,18.72
2022-08-28T05:15:47.991Z,18.73
2022-08-28T05:16:47.986Z,18.70
2022-08-28T05:17:47.986Z,18.75
2022-08-28T05:18:47.982Z,18.78
2022-08-28T05:19:47.961Z,18.99
2022-08-28T05:20:47.936Z,19.07
2022-08-28T05:21:47.976Z,19.28
2022-08-28T05:22:47.928Z,19.21
2022-08-28T05:23:47.914Z,19.18
2022-08-28T05:24:47.903Z,19.21
2022-08-28T05:25:47.899Z,19.36
2022-08-28T05:26:48.159Z,19.23
2022-08-28T05:27:47.874Z,19.25
2022-08-28T05:28:47.887Z,19.23
2022-08-28T05:29:47.870Z,19.18
2022-08-28T05:30:47.849Z,19.14
2022-08-28T05:31:47.973Z,19.21
2022-08-28T05:32:47.827Z,19.26
2022-08-28T05:33:47.822Z,19.37
2022-08-28T05:34:47.832Z,19.25
2022-08-28T05:35:47.794Z,19.31
2022-08-28T05:36:47.870Z,19.13
2022-08-28T05:37:47.786Z,18.92
2022-08-28T05:38:47.772Z,18.95
2022-08-28T05:39:47.911Z,19.06
2022-08-28T05:40:47.750Z,19.04
2022-08-28T05:41:47.740Z,19.13
2022-08-28T05:42:47.735Z,19.18
2022-08-28T05:43:47.720Z,19.13
2022-08-28T05:44:47.730Z,19.04
2022-08-28T05:45:47.753Z,19.11
2022-08-28T05:46:47.751Z,19.18
2022-08-28T05:47:47.671Z,19.04
2022-08-28T05:48:47.685Z,19.21
2022-08-28T05:49:47.656Z,19.22
2022-08-28T05:50:48.204Z,19.22
2022-08-28T05:51:47.634Z,19.29
2022-08-28T05:52:47.633Z,19.25
2022-08-28T05:53:47.639Z,19.28
2022-08-28T05:54:47.630Z,19.33
2022-08-28T05:55:51.641Z,19.56
2022-08-28T05:56:47.618Z,19.69
2022-08-28T05:57:47.583Z,19.77
2022-08-28T05:58:47.574Z,20.06
2022-08-28T05:59:47.558Z,20.33
2022-08-28T06:00:47.582Z,20.64
2022-08-28T06:01:47.625Z,20.91
2022-08-28T06:02:47.534Z,20.91
2022-08-28T06:03:47.592Z,21.21
2022-08-28T06:04:47.510Z,21.65
2022-08-28T06:05:47.530Z,21.65
2022-08-28T06:06:47.508Z,21.98
2022-08-28T06:07:47.509Z,22.55
2022-08-28T06:08:58.269Z,22.95
2022-08-28T06:09:48.479Z,23.10
2022-08-28T06:10:50.816Z,22.97
2022-08-28T06:11:47.492Z,23.46
2022-08-28T06:12:47.445Z,23.68
2022-08-28T06:13:47.444Z,24.06
2022-08-28T06:14:47.426Z,23.80
2022-08-28T06:15:47.455Z,23.84
2022-08-28T06:16:47.416Z,23.75
2022-08-28T06:17:47.428Z,23.73
2022-08-28T06:18:47.380Z,23.84
2022-08-28T06:19:47.371Z,23.27
2022-08-28T06:20:47.379Z,23.16
2022-08-28T06:21:47.358Z,23.47
2022-08-28T06:22:47.372Z,23.02
2022-08-28T06:23:47.351Z,22.75
2022-08-28T06:24:47.353Z,22.49
2022-08-28T06:25:47.319Z,22.92
2022-08-28T06:26:47.308Z,23.43
2022-08-28T06:27:47.318Z,23.80
2022-08-28T06:28:47.296Z,23.88
2022-08-28T06:29:47.303Z,24.20
2022-08-28T06:31:17.964Z,24.61
2022-08-28T06:31:48.300Z,25.17
2022-08-28T06:32:47.254Z,25.06
2022-08-28T06:33:47.242Z,25.17
2022-08-28T06:34:47.242Z,25.15
2022-08-28T06:35:47.237Z,24.96
2022-08-28T06:36:51.801Z,25.18
2022-08-28T06:37:49.198Z,24.80
2022-08-28T06:38:47.193Z,24.84
2022-08-28T06:39:47.188Z,24.34
2022-08-28T06:40:47.200Z,23.60
2022-08-28T06:41:47.169Z,23.09
2022-08-28T06:42:47.159Z,22.77
2022-08-28T06:43:47.150Z,22.39
2022-08-28T06:44:47.131Z,22.03
2022-08-28T06:45:47.215Z,21.79
2022-08-28T06:46:47.194Z,21.65
2022-08-28T06:47:47.112Z,21.21
2022-08-28T06:48:47.110Z,20.97
2022-08-28T06:49:47.107Z,21.13
2022-08-28T06:50:47.088Z,20.76
2022-08-28T06:51:47.095Z,20.74
2022-08-28T06:52:47.063Z,20.55
2022-08-28T06:53:47.052Z,20.47
2022-08-28T06:54:55.632Z,20.32
2022-08-28T06:55:47.048Z,19.88
2022-08-28T06:56:47.028Z,19.94
2022-08-28T06:57:47.019Z,20.08
2022-08-28T06:58:50.110Z,20.06
2022-08-28T06:59:46.992Z,20.11
2022-08-28T07:00:46.989Z,20.17
2022-08-28T07:01:47.224Z,20.18
2022-08-28T07:02:47.044Z,20.26
2022-08-28T07:03:46.976Z,20.47
2022-08-28T07:04:46.971Z,20.47
2022-08-28T07:05:46.957Z,20.72
2022-08-28T07:06:50.361Z,21.07
2022-08-28T07:07:47.923Z,21.12
2022-08-28T07:08:46.913Z,21.01
2022-08-28T07:09:46.930Z,21.10
2022-08-28T07:10:46.891Z,21.17
2022-08-28T07:12:18.788Z,21.25
2022-08-28T07:12:46.883Z,21.21
2022-08-28T07:13:46.883Z,21.49
2022-08-28T07:14:46.899Z,21.64
2022-08-28T07:15:46.918Z,21.58
2022-08-28T07:16:46.872Z,21.32
2022-08-28T07:17:46.855Z,21.46
2022-08-28T07:18:46.832Z,21.34
2022-08-28T07:19:46.826Z,21.24
2022-08-28T07:20:46.813Z,21.06
2022-08-28T07:21:46.818Z,20.94
2022-08-28T07:22:46.791Z,20.89
2022-08-28T07:23:46.783Z,20.99
2022-08-28T07:24:46.773Z,21.12
2022-08-28T07:25:46.773Z,21.01
2022-08-28T07:26:46.777Z,20.91
2022-08-28T07:27:46.751Z,20.82
2022-08-28T07:28:46.725Z,20.72
2022-08-28T07:29:46.723Z,20.73
2022-08-28T07:30:46.755Z,20.70
2022-08-28T07:31:46.707Z,20.67
2022-08-28T07:32:46.731Z,20.79
2022-08-28T07:33:46.687Z,21.28
2022-08-28T07:34:47.704Z,21.64
2022-08-28T07:35:46.665Z,22.25
2022-08-28T07:36:46.669Z,23.20
2022-08-28T07:37:46.676Z,23.60
2022-08-28T07:38:46.626Z,23.95
2022-08-28T07:39:46.642Z,24.31
2022-08-28T07:40:46.620Z,24.68
2022-08-28T07:41:46.621Z,25.27
2022-08-28T07:42:46.597Z,25.75
2022-08-28T07:43:46.590Z,25.60
2022-08-28T07:44:46.603Z,25.76
2022-08-28T07:45:46.630Z,25.90
2022-08-28T07:46:46.566Z,25.85
2022-08-28T07:47:46.554Z,25.42
2022-08-28T07:48:46.548Z,25.40
2022-08-28T07:49:46.557Z,25.05
2022-08-28T07:50:46.514Z,24.46
2022-08-28T07:51:46.805Z,23.87
2022-08-28T07:52:46.529Z,23.10
2022-08-28T07:53:46.502Z,22.70
2022-08-28T07:54:46.500Z,22.39
2022-08-28T07:55:46.474Z,22.27
2022-08-28T07:56:46.509Z,22.06
2022-08-28T07:57:46.491Z,21.92
2022-08-28T07:58:46.672Z,21.65
2022-08-28T07:59:46.451Z,21.65
2022-08-28T08:00:46.440Z,21.65
2022-08-28T08:01:46.641Z,22.57
2022-08-28T08:02:46.438Z,22.28
2022-08-28T08:03:46.459Z,22.47
2022-08-28T08:04:46.407Z,23.55
2022-08-28T08:05:46.392Z,24.25
2022-08-28T08:06:46.377Z,24.47
2022-08-28T08:07:46.418Z,25.09
2022-08-28T08:08:46.386Z,25.23
2022-08-28T08:09:46.348Z,25.47
2022-08-28T08:10:46.329Z,25.75
2022-08-28T08:11:46.335Z,26.20
2022-08-28T08:12:46.321Z,26.43
2022-08-28T08:13:46.335Z,26.18
2022-08-28T08:14:46.294Z,26.12
2022-08-28T08:15:46.323Z,26.01
2022-08-28T08:16:46.274Z,25.91
2022-08-28T08:17:46.321Z,25.72
2022-08-28T08:18:46.259Z,25.28
2022-08-28T08:19:46.249Z,24.80
2022-08-28T08:20:46.242Z,24.40
2022-08-28T08:21:46.258Z,24.00
2022-08-28T08:22:46.223Z,23.93
2022-08-28T08:23:46.208Z,23.98
2022-08-28T08:24:46.229Z,23.61
2022-08-28T08:25:46.201Z,23.32
2022-08-28T08:26:47.011Z,23.07
2022-08-28T08:27:47.172Z,22.64
2022-08-28T08:28:46.162Z,22.46
2022-08-28T08:29:46.171Z,22.58
2022-08-28T08:30:46.177Z,23.28
2022-08-28T08:31:46.164Z,24.22
2022-08-28T08:32:46.150Z,24.60
2022-08-28T08:33:46.122Z,25.14
2022-08-28T08:34:46.102Z,25.14
2022-08-28T08:35:46.092Z,25.09
2022-08-28T08:36:46.081Z,25.43
2022-08-28T08:37:46.110Z,25.58
2022-08-28T08:38:46.098Z,25.85
2022-08-28T08:39:46.060Z,25.60
2022-08-28T08:40:46.087Z,25.65
2022-08-28T08:41:46.035Z,25.92
2022-08-28T08:42:46.062Z,25.62
2022-08-28T08:43:46.036Z,25.62
2022-08-28T08:44:46.082Z,25.91
2022-08-28T08:45:46.018Z,25.58
2022-08-28T08:46:46.076Z,25.32
2022-08-28T08:47:46.007Z,25.47
2022-08-28T08:48:45.988Z,25.61
2022-08-28T08:49:45.992Z,25.43
2022-08-28T08:50:45.960Z,25.60
2022-08-28T08:51:45.953Z,25.64
2022-08-28T08:52:45.945Z,26.15
2022-08-28T08:53:45.929Z,26.66
2022-08-28T08:54:45.952Z,26.82
2022-08-28T08:55:45.915Z,27.09
2022-08-28T08:56:45.941Z,26.91
2022-08-28T08:57:49.245Z,26.85
2022-08-28T08:58:45.936Z,26.43
2022-08-28T08:59:45.899Z,26.44
2022-08-28T09:00:45.869Z,26.51
2022-08-28T09:01:45.924Z,26.45
2022-08-28T09:02:45.846Z,26.54
2022-08-28T09:03:45.887Z,26.48
2022-08-28T09:04:45.849Z,26.50
2022-08-28T09:05:45.846Z,26.75
2022-08-28T09:06:45.907Z,26.72
2022-08-28T09:07:48.269Z,26.91
2022-08-28T09:08:45.791Z,26.75
2022-08-28T09:09:45.795Z,26.70
2022-08-28T09:10:45.818Z,26.57
2022-08-28T09:11:45.776Z,26.39
2022-08-28T09:12:46.760Z,25.91
2022-08-28T09:13:45.750Z,25.64
2022-08-28T09:14:45.730Z,25.50
2022-08-28T09:15:49.933Z,25.10
2022-08-28T09:16:47.767Z,25.43
2022-08-28T09:17:45.699Z,25.70
2022-08-28T09:18:45.696Z,25.95
2022-08-28T09:19:45.706Z,26.02
2022-08-28T09:20:45.686Z,25.98
2022-08-28T09:21:45.699Z,25.77
2022-08-28T09:22:45.677Z,25.80
2022-08-28T09:23:45.658Z,25.94
2022-08-28T09:24:45.646Z,26.32
2022-08-28T09:25:45.643Z,26.36
2022-08-28T09:26:45.622Z,26.57
2022-08-28T09:27:45.646Z,26.43
2022-08-28T09:28:45.622Z,26.55
2022-08-28T09:29:45.595Z,26.69
2022-08-28T09:30:45.627Z,26.72
2022-08-28T09:31:45.587Z,26.66
2022-08-28T09:32:45.582Z,26.54
2022-08-28T09:33:45.584Z,26.36
2022-08-28T09:34:45.549Z,26.17
2022-08-28T09:35:45.543Z,25.67
2022-08-28T09:36:45.552Z,25.76
2022-08-28T09:37:45.538Z,25.91
2022-08-28T09:38:45.543Z,26.02
2022-08-28T09:39:48.794Z,26.26
2022-08-28T09:40:46.542Z,26.26
2022-08-28T09:41:45.553Z,25.83
2022-08-28T09:42:45.481Z,25.75
2022-08-28T09:43:45.490Z,25.83
2022-08-28T09:44:45.451Z,26.06
2022-08-28T09:45:45.483Z,26.05
2022-08-28T09:46:45.496Z,25.88
2022-08-28T09:47:46.320Z,26.17
2022-08-28T09:48:45.423Z,26.18
2022-08-28T09:49:45.414Z,26.33
2022-08-28T09:50:45.434Z,26.30
2022-08-28T09:51:45.407Z,26.17
2022-08-28T09:52:45.409Z,25.73
2022-08-28T09:53:45.376Z,25.23
2022-08-28T09:54:45.380Z,24.90
2022-08-28T09:55:45.360Z,24.85
2022-08-28T09:56:45.367Z,24.47
2022-08-28T09:57:45.332Z,24.37
2022-08-28T09:58:45.325Z,24.39
2022-08-28T09:59:45.324Z,24.52
2022-08-28T10:00:45.313Z,24.47
2022-08-28T10:01:45.491Z,24.50
2022-08-28T10:02:45.298Z,24.43
2022-08-28T10:03:45.278Z,24.62
2022-08-28T10:04:45.464Z,24.95
2022-08-28T10:05:45.263Z,24.84
2022-08-28T10:06:45.272Z,24.57
2022-08-28T10:07:45.226Z,24.58
2022-08-28T10:08:45.221Z,24.55
2022-08-28T10:09:46.754Z,24.52
2022-08-28T10:10:45.204Z,24.32
2022-08-28T10:11:45.224Z,24.31
2022-08-28T10:12:45.208Z,24.21
2022-08-28T10:13:45.184Z,24.00
2022-08-28T10:14:45.190Z,23.97
2022-08-28T10:15:45.212Z,24.08
2022-08-28T10:16:45.173Z,24.27
2022-08-28T10:17:45.186Z,24.25
2022-08-28T10:18:45.131Z,24.34
2022-08-28T10:19:45.125Z,24.28
2022-08-28T10:20:45.129Z,24.28
2022-08-28T10:21:45.106Z,24.21
2022-08-28T10:22:45.122Z,24.18
2022-08-28T10:23:45.081Z,24.08
2022-08-28T10:24:45.103Z,24.03
2022-08-28T10:25:45.065Z,24.05
2022-08-28T10:26:45.088Z,24.10
2022-08-28T10:27:45.040Z,23.90
2022-08-28T10:28:45.027Z,23.76
2022-08-28T10:29:45.027Z,23.78
2022-08-28T10:30:45.028Z,24.12
2022-08-28T10:31:45.034Z,24.22
2022-08-28T10:32:44.987Z,24.25
2022-08-28T10:33:45.026Z,24.18
2022-08-28T10:34:44.975Z,24.18
2022-08-28T10:35:44.973Z,24.28
2022-08-28T10:36:44.963Z,24.32
2022-08-28T10:37:44.961Z,24.53
2022-08-28T10:38:49.483Z,24.64
2022-08-28T10:39:45.925Z,24.28
2022-08-28T10:40:44.922Z,24.10
2022-08-28T10:41:44.898Z,23.54
2022-08-28T10:42:45.899Z,23.50
2022-08-28T10:43:44.920Z,23.53
2022-08-28T10:44:44.875Z,23.70
2022-08-28T10:45:44.861Z,23.97
2022-08-28T10:46:44.881Z,24.22
2022-08-28T10:47:44.847Z,24.35
2022-08-28T10:48:44.854Z,24.22
2022-08-28T10:49:44.835Z,24.16
2022-08-28T10:50:44.829Z,24.02
2022-08-28T10:51:44.806Z,23.80
2022-08-28T10:52:44.795Z,23.50
2022-08-28T10:53:44.817Z,23.47
2022-08-28T10:54:44.814Z,23.23
2022-08-28T10:55:44.780Z,23.27
2022-08-28T10:56:44.762Z,23.33
2022-08-28T10:57:44.749Z,23.40
2022-08-28T10:58:44.772Z,23.55
2022-08-28T10:59:44.739Z,23.50
2022-08-28T11:00:44.754Z,23.50
2022-08-28T11:01:44.848Z,23.53
2022-08-28T11:02:44.786Z,23.28
2022-08-28T11:03:44.690Z,23.07
2022-08-28T11:04:45.705Z,23.25
2022-08-28T11:05:53.432Z,23.35
2022-08-28T11:06:46.729Z,23.51
2022-08-28T11:07:44.675Z,23.61
2022-08-28T11:08:44.661Z,23.88
2022-08-28T11:09:44.652Z,24.12
2022-08-28T11:10:44.646Z,24.24
2022-08-28T11:11:44.650Z,23.97
2022-08-28T11:12:44.650Z,24.12
2022-08-28T11:13:44.589Z,24.31
2022-08-28T11:14:48.477Z,24.46
2022-08-28T11:15:44.590Z,24.55
2022-08-28T11:16:44.642Z,24.76
2022-08-28T11:17:44.581Z,24.98
2022-08-28T11:18:44.560Z,24.77
2022-08-28T11:19:46.225Z,24.81
2022-08-28T11:20:44.548Z,24.43
2022-08-28T11:21:44.535Z,24.20
2022-08-28T11:22:44.559Z,24.05
2022-08-28T11:23:44.522Z,23.91
2022-08-28T11:24:44.509Z,24.13
2022-08-28T11:25:44.521Z,24.32
2022-08-28T11:26:44.502Z,24.09
2022-08-28T11:27:44.498Z,23.83
2022-08-28T11:28:44.523Z,23.97
2022-08-28T11:29:44.458Z,23.95
2022-08-28T11:30:44.489Z,23.70
2022-08-28T11:31:44.436Z,23.76
2022-08-28T11:32:46.974Z,24.02
2022-08-28T11:33:44.447Z,24.03
2022-08-28T11:34:44.437Z,24.02
2022-08-28T11:35:44.394Z,24.00
2022-08-28T11:36:44.399Z,23.73
2022-08-28T11:37:44.378Z,23.83
2022-08-28T11:38:44.378Z,23.97
2022-08-28T11:39:44.374Z,23.97
2022-08-28T11:40:44.357Z,24.16
2022-08-28T11:41:44.336Z,24.27
2022-08-28T11:42:44.359Z,24.28
2022-08-28T11:43:44.333Z,24.24
2022-08-28T11:44:44.351Z,24.34
2022-08-28T11:45:46.741Z,24.37
2022-08-28T11:46:44.410Z,24.30
2022-08-28T11:47:44.318Z,24.24
2022-08-28T11:48:44.271Z,24.31
2022-08-28T11:49:44.310Z,24.32
2022-08-28T11:50:44.322Z,24.53
2022-08-28T11:51:44.262Z,24.60
2022-08-28T11:52:44.291Z,24.62
2022-08-28T11:53:44.231Z,24.42
2022-08-28T11:54:44.316Z,24.24
2022-08-28T11:55:44.242Z,24.35
2022-08-28T11:56:44.204Z,24.20
2022-08-28T11:57:44.201Z,24.05
2022-08-28T11:58:44.212Z,23.68
2022-08-28T11:59:44.235Z,23.63
2022-08-28T12:00:44.169Z,23.61
2022-08-28T12:01:44.144Z,23.79
2022-08-28T12:02:44.307Z,24.03
2022-08-28T12:03:44.162Z,24.05
2022-08-28T12:04:44.219Z,24.02
2022-08-28T12:05:45.331Z,23.98
2022-08-28T12:06:44.120Z,23.94
2022-08-28T12:07:44.099Z,23.65
2022-08-28T12:08:44.092Z,23.85
2022-08-28T12:09:44.070Z,23.61
2022-08-28T12:10:44.108Z,23.35
2022-08-28T12:11:44.067Z,23.39
2022-08-28T12:12:44.062Z,23.55
2022-08-28T12:13:44.039Z,23.87
2022-08-28T12:14:44.054Z,23.91
2022-08-28T12:15:44.089Z,24.12
2022-08-28T12:16:44.028Z,24.30
2022-08-28T12:17:44.012Z,24.12
2022-08-28T12:18:43.993Z,24.27
2022-08-28T12:19:55.401Z,24.35
2022-08-28T12:20:44.976Z,24.43
2022-08-28T12:21:43.959Z,24.52
2022-08-28T12:22:43.955Z,24.53
2022-08-28T12:23:43.930Z,24.73
2022-08-28T12:24:43.960Z,24.65
2022-08-28T12:25:43.942Z,24.73
2022-08-28T12:26:43.906Z,24.78
2022-08-28T12:27:43.894Z,24.95
2022-08-28T12:28:44.908Z,25.00
2022-08-28T12:29:43.883Z,25.13
2022-08-28T12:30:43.918Z,25.15
2022-08-28T12:31:43.888Z,25.17
2022-08-28T12:32:43.864Z,25.28
2022-08-28T12:33:43.843Z,25.35
2022-08-28T12:34:43.865Z,25.39
2022-08-28T12:35:44.042Z,25.33
2022-08-28T12:36:47.817Z,25.35
2022-08-28T12:37:52.374Z,25.09
2022-08-28T12:38:44.817Z,24.87
2022-08-28T12:39:43.787Z,24.78
2022-08-28T12:40:43.869Z,24.68
2022-08-28T12:41:43.773Z,24.88
2022-08-28T12:42:43.796Z,24.90
2022-08-28T12:43:46.562Z,24.96
2022-08-28T12:44:43.740Z,24.76
2022-08-28T12:45:43.758Z,24.71
2022-08-28T12:46:43.717Z,24.71
2022-08-28T12:47:43.744Z,24.53
2022-08-28T12:48:43.725Z,24.39
2022-08-28T12:49:43.708Z,24.27
2022-08-28T12:50:43.680Z,24.43
2022-08-28T12:51:43.675Z,24.61
2022-08-28T12:52:43.660Z,24.60